Time;durP1;ratioP1;P1;durP2;ratioP2;P2;SDS_P1;SDS_P2;PMS_P1;PMS_P2;Temp;Humidity;BMP_temperature;BMP_pressure;BME280_temperature;BME280_humidity;BME280_pressure;Samples;Min_cycle;Max_cycle;Signal;HPM_P1;HPM_P2
2021/12/13 00:01:21;;;;;;;3.92;2.90;;;0.80;99.90;;;;;;4927159;29;20028;-77
2021/12/13 00:04:06;;;;;;;4.63;3.22;;;0.70;99.90;;;;;;4932261;29;20044;-78
2021/12/13 00:06:38;;;;;;;4.60;3.42;;;0.70;99.90;;;;;;4927288;29;20027;-77
2021/12/13 00:09:16;;;;;;;4.15;2.78;;;0.70;99.90;;;;;;4944859;29;20083;-78
2021/12/13 00:11:46;;;;;;;3.03;2.20;;;0.60;99.90;;;;;;4926169;29;20106;-78
2021/12/13 00:14:20;;;;;;;5.20;2.88;;;0.60;99.90;;;;;;4926385;29;20027;-77
2021/12/13 00:16:49;;;;;;;5.97;3.50;;;0.70;99.90;;;;;;4927872;29;20023;-78
2021/12/13 00:19:21;;;;;;;9.70;3.92;;;0.70;99.90;;;;;;4928121;29;20055;-78
2021/12/13 00:21:56;;;;;;;7.38;2.95;;;0.80;99.90;;;;;;4921246;29;20496;-78
2021/12/13 00:24:32;;;;;;;3.63;2.00;;;0.80;99.90;;;;;;4920663;29;20024;-77
2021/12/13 00:27:02;;;;;;;4.72;2.97;;;0.80;99.90;;;;;;4937089;29;20030;-78
2021/12/13 00:29:36;;;;;;;3.75;1.98;;;0.90;99.90;;;;;;4919896;29;20024;-78
2021/12/13 00:32:20;;;;;;;6.47;3.75;;;0.90;99.90;;;;;;4936647;29;20303;-77
2021/12/13 00:34:54;;;;;;;8.48;3.03;;;1.00;99.90;;;;;;4920217;29;20583;-78
2021/12/13 00:37:24;;;;;;;3.80;2.65;;;1.00;99.90;;;;;;4935465;29;20385;-77
2021/12/13 00:40:05;;;;;;;4.70;2.33;;;1.30;99.90;;;;;;4920317;29;20024;-78
2021/12/13 00:42:38;;;;;;;2.50;2.28;;;1.30;99.90;;;;;;4938421;29;20024;-78
2021/12/13 00:45:08;;;;;;;4.45;3.20;;;1.40;99.90;;;;;;4936630;29;20539;-78
2021/12/13 00:47:37;;;;;;;3.10;2.42;;;1.30;99.90;;;;;;4942379;29;20035;-79
2021/12/13 00:50:09;;;;;;;7.88;5.35;;;1.30;99.90;;;;;;4938611;29;20027;-79
2021/12/13 00:52:38;;;;;;;4.32;3.33;;;1.30;99.90;;;;;;4944633;29;20046;-79
2021/12/13 00:55:20;;;;;;;5.18;2.70;;;1.30;99.90;;;;;;4961299;28;20012;-82
2021/12/13 00:58:04;;;;;;;6.63;4.57;;;1.30;99.90;;;;;;4944466;29;20035;-78
2021/12/13 01:00:52;;;;;;;5.75;3.08;;;1.30;99.90;;;;;;4942747;29;20027;-79
2021/12/13 01:03:28;;;;;;;5.25;3.65;;;1.20;99.90;;;;;;4959944;29;20037;-79
2021/12/13 01:06:14;;;;;;;6.82;3.33;;;1.30;99.90;;;;;;4943438;29;20015;-79
2021/12/13 01:09:18;;;;;;;4.50;3.17;;;1.30;99.90;;;;;;4929966;29;20074;-79
2021/12/13 01:11:44;;;;;;;4.10;3.55;;;1.20;99.90;;;;;;4959726;28;20015;-79
2021/12/13 01:14:30;;;;;;;5.15;3.78;;;1.20;99.90;;;;;;4943379;29;20047;-79
2021/12/13 01:17:14;;;;;;;9.30;3.38;;;1.20;99.90;;;;;;4941239;29;20052;-79
2021/12/13 01:19:59;;;;;;;9.98;3.05;;;1.40;99.90;;;;;;4958210;28;20036;-78
2021/12/13 01:22:59;;;;;;;3.63;2.35;;;1.40;99.90;;;;;;4941367;29;20047;-79
2021/12/13 01:28:23;;;;;;;3.08;2.78;;;1.50;99.90;;;;;;4954778;29;20032;-78
2021/12/13 01:30:57;;;;;;;4.95;2.60;;;1.40;99.90;;;;;;4956207;28;20024;-79
2021/12/13 01:33:25;;;;;;;7.55;6.22;;;1.40;99.90;;;;;;4955228;28;20040;-78
2021/12/13 01:35:55;;;;;;;8.17;4.87;;;1.40;99.90;;;;;;4936587;29;20016;-79
2021/12/13 01:38:34;;;;;;;7.53;4.47;;;1.30;99.90;;;;;;4938249;29;20067;-79
2021/12/13 01:41:08;;;;;;;4.78;3.78;;;1.30;99.90;;;;;;4936952;29;20027;-78
2021/12/13 01:43:36;;;;;;;7.40;3.60;;;1.30;99.90;;;;;;4937774;29;20004;-78
2021/12/13 01:46:02;;;;;;;6.72;4.07;;;1.30;99.90;;;;;;4956346;29;20551;-79
2021/12/13 01:48:35;;;;;;;3.80;3.50;;;1.20;99.90;;;;;;4937917;29;20043;-78
2021/12/13 01:51:08;;;;;;;8.52;3.70;;;1.10;99.90;;;;;;4933436;29;20008;-79
2021/12/13 01:53:36;;;;;;;8.45;3.30;;;1.10;99.90;;;;;;4933454;29;20103;-78
2021/12/13 01:56:22;;;;;;;5.68;4.43;;;1.10;99.90;;;;;;4935847;29;20358;-78
2021/12/13 01:58:48;;;;;;;6.75;3.85;;;1.00;99.90;;;;;;4935643;29;20083;-78
2021/12/13 02:01:19;;;;;;;2.42;2.20;;;1.00;99.90;;;;;;4935714;29;20501;-78
2021/12/13 02:03:54;;;;;;;6.60;3.70;;;1.10;99.90;;;;;;4952529;29;20083;-79
2021/12/13 02:06:40;;;;;;;2.92;2.65;;;1.10;99.90;;;;;;4936401;29;20047;-79
2021/12/13 02:09:17;;;;;;;7.10;3.53;;;1.10;99.90;;;;;;4936122;29;20008;-78
2021/12/13 02:11:46;;;;;;;24.52;2.92;;;1.10;99.90;;;;;;4953386;29;20027;-78
2021/12/13 02:14:17;;;;;;;7.40;2.67;;;1.10;99.90;;;;;;4936768;29;20035;-79
2021/12/13 02:17:12;;;;;;;5.88;2.58;;;1.10;99.90;;;;;;4936769;29;20011;-79
2021/12/13 02:20:00;;;;;;;4.47;2.13;;;1.10;99.90;;;;;;4945603;23;20094;-78
2021/12/13 02:22:39;;;;;;;1.95;1.85;;;1.00;99.90;;;;;;4956817;29;20012;-79
2021/12/13 02:25:13;;;;;;;2.13;2.03;;;1.00;99.90;;;;;;4955422;28;20031;-79
2021/12/13 02:27:42;;;;;;;3.65;3.10;;;0.90;99.90;;;;;;4939745;29;20038;-79
2021/12/13 02:30:31;;;;;;;2.22;2.05;;;0.80;99.90;;;;;;4954982;28;20040;-79
2021/12/13 02:32:58;;;;;;;3.58;2.83;;;0.80;99.90;;;;;;4935617;29;20067;-78
2021/12/13 02:35:28;;;;;;;2.22;2.10;;;0.70;99.90;;;;;;4949019;29;20022;-79
2021/12/13 02:37:55;;;;;;;3.13;1.77;;;0.80;99.90;;;;;;4948455;29;20119;-78
2021/12/13 02:40:22;;;;;;;4.15;2.65;;;0.70;99.90;;;;;;4947419;29;20031;-79
2021/12/13 02:42:50;;;;;;;4.25;2.58;;;0.00;99.90;;;;;;4949453;29;20075;-78
2021/12/13 02:45:27;;;;;;;5.55;3.22;;;0.60;99.90;;;;;;4950803;29;20027;-78
2021/12/13 02:48:01;;;;;;;3.03;2.47;;;0.50;99.90;;;;;;4950405;29;20020;-79
2021/12/13 02:50:52;;;;;;;2.63;2.30;;;0.50;99.90;;;;;;4950383;29;20106;-79
2021/12/13 02:53:25;;;;;;;4.13;2.92;;;0.50;99.90;;;;;;4949564;29;20046;-78
2021/12/13 02:55:52;;;;;;;2.60;2.40;;;0.40;99.90;;;;;;4946138;29;20066;-78
2021/12/13 02:58:21;;;;;;;2.88;2.63;;;0.40;99.90;;;;;;4932054;29;20024;-79
2021/12/13 03:00:47;;;;;;;2.42;1.85;;;0.40;99.90;;;;;;4947831;29;20119;-78
2021/12/13 03:03:19;;;;;;;5.00;2.97;;;0.90;99.90;;;;;;4923345;29;20064;-79
2021/12/13 03:05:49;;;;;;;4.93;2.28;;;0.30;99.90;;;;;;4938848;29;20035;-79
2021/12/13 03:08:18;;;;;;;;;;;0.20;99.90;;;;;;4940999;29;20047;-79
2021/12/13 03:10:52;;;;;;;4.53;2.33;;;0.10;99.90;;;;;;4926183;29;19914;-79
2021/12/13 03:13:22;;;;;;;2.95;2.20;;;0.90;99.90;;;;;;4942469;29;20063;-79
2021/12/13 03:15:58;;;;;;;3.30;2.03;;;0.20;99.90;;;;;;4927194;29;20031;-79
2021/12/13 03:18:34;;;;;;;4.38;2.90;;;0.10;99.90;;;;;;4948908;29;20054;-79
2021/12/13 03:21:10;;;;;;;2.30;1.40;;;0.00;99.90;;;;;;4942944;29;20067;-79
2021/12/13 03:23:39;;;;;;;1.58;1.48;;;0.00;99.90;;;;;;4958832;29;20031;-79
2021/12/13 03:26:27;;;;;;;3.50;1.92;;;-0.20;99.90;;;;;;4942332;29;20027;-79
2021/12/13 03:29:17;;;;;;;6.40;2.13;;;-0.10;99.90;;;;;;4942691;29;20095;-79
2021/12/13 03:31:53;;;;;;;3.28;2.08;;;-0.30;99.90;;;;;;4941892;29;20035;-80
2021/12/13 03:34:19;;;;;;;3.25;2.70;;;-0.40;99.90;;;;;;4958915;29;20028;-79
2021/12/13 03:36:56;;;;;;;3.95;3.65;;;-0.40;99.90;;;;;;4941161;29;20028;-79
2021/12/13 03:39:50;;;;;;;4.78;3.00;;;-0.30;99.90;;;;;;4940673;29;20019;-79
2021/12/13 03:42:28;;;;;;;5.35;2.50;;;-0.40;99.90;;;;;;4953434;29;20012;-79
2021/12/13 03:44:58;;;;;;;2.45;2.25;;;-0.40;99.90;;;;;;4956440;29;20031;-80
2021/12/13 03:47:28;;;;;;;2.30;2.10;;;-0.50;99.90;;;;;;4954846;29;20080;-80
2021/12/13 03:49:58;;;;;;;1.98;1.77;;;-0.60;99.90;;;;;;4941213;29;20804;-80
2021/12/13 03:52:27;;;;;;;4.95;3.20;;;-0.20;99.90;;;;;;4956894;29;20031;-79
2021/12/13 03:54:55;;;;;;;2.60;1.75;;;-0.70;99.90;;;;;;4956380;29;20055;-79
2021/12/13 03:57:23;;;;;;;1.42;1.38;;;-0.50;99.90;;;;;;4954907;29;20039;-79
2021/12/13 03:59:50;;;;;;;6.18;2.58;;;-0.80;99.90;;;;;;4955149;29;20059;-80
2021/12/13 04:02:21;;;;;;;4.22;1.27;;;-0.70;99.90;;;;;;4940490;28;20035;-80
2021/12/13 04:04:51;;;;;;;2.95;2.20;;;-0.50;99.90;;;;;;4957437;29;20074;-80
2021/12/13 04:07:21;;;;;;;2.47;1.60;;;-0.90;99.90;;;;;;4955481;29;20075;-79
2021/12/13 04:09:48;;;;;;;;;;;-0.80;99.90;;;;;;4949309;29;20028;-80
2021/12/13 04:12:16;;;;;;;3.55;1.58;;;-0.90;99.90;;;;;;4932295;29;20058;-79
2021/12/13 04:14:48;;;;;;;2.00;1.73;;;-0.70;99.90;;;;;;4947594;29;20040;-80
2021/12/13 04:17:36;;;;;;;2.30;1.83;;;-0.50;99.90;;;;;;4964710;29;20039;-80
2021/12/13 04:20:08;;;;;;;1.17;1.17;;;-0.80;99.90;;;;;;4950233;29;20087;-80
2021/12/13 04:22:36;;;;;;;1.67;1.52;;;-0.90;99.90;;;;;;4967237;28;20024;-79
2021/12/13 04:25:08;;;;;;;2.90;2.17;;;-0.70;99.90;;;;;;4967315;28;20062;-79
2021/12/13 04:27:42;;;;;;;4.25;1.92;;;-0.90;99.90;;;;;;4967939;29;20019;-79
2021/12/13 04:30:20;;;;;;;1.50;1.45;;;-1.00;99.90;;;;;;4950565;29;20031;-80
2021/12/13 04:32:50;;;;;;;1.98;1.58;;;-1.10;99.90;;;;;;4967162;29;20027;-80
2021/12/13 04:35:17;;;;;;;4.10;2.30;;;-1.20;99.90;;;;;;4966680;28;20023;-80
2021/12/13 04:37:47;;;;;;;3.13;1.63;;;-1.30;99.90;;;;;;4950674;29;20031;-80
2021/12/13 04:40:20;;;;;;;10.85;1.60;;;-0.60;99.90;;;;;;4950576;29;20027;-79
2021/12/13 04:42:50;;;;;;;3.63;1.85;;;-1.30;99.90;;;;;;4951986;29;20027;-80
2021/12/13 04:45:19;;;;;;;1.85;1.65;;;-0.60;99.90;;;;;;4951744;29;20117;-79
2021/12/13 04:47:55;;;;;;;4.35;1.83;;;-1.40;99.90;;;;;;4958399;29;20003;-79
2021/12/13 04:50:55;;;;;;;1.33;1.20;;;-1.40;99.90;;;;;;4959604;29;20043;-79
2021/12/13 04:53:36;;;;;;;4.88;1.65;;;-1.20;99.90;;;;;;4909696;29;20043;-79
2021/12/13 04:56:10;;;;;;;2.05;1.52;;;-1.50;99.90;;;;;;4977427;29;20011;-81
2021/12/13 04:58:37;;;;;;;3.63;1.13;;;-1.30;99.90;;;;;;4975458;28;20035;-80
2021/12/13 05:01:06;;;;;;;0.93;0.93;;;-0.90;99.90;;;;;;4975998;29;20011;-79
2021/12/13 05:03:36;;;;;;;5.90;2.10;;;-1.20;99.90;;;;;;4976802;28;20051;-79
2021/12/13 05:06:09;;;;;;;2.25;1.60;;;-1.30;99.90;;;;;;4960201;29;20031;-79
2021/12/13 05:08:37;;;;;;;2.25;2.00;;;-0.70;99.90;;;;;;4976358;28;20027;-79
2021/12/13 05:11:06;;;;;;;2.92;0.93;;;-1.00;99.90;;;;;;4959999;29;20030;-79
2021/12/13 05:13:37;;;;;;;4.55;3.35;;;-1.40;99.90;;;;;;4958622;29;20059;-79
2021/12/13 05:16:09;;;;;;;3.47;1.35;;;-1.30;99.90;;;;;;4968446;29;20480;-79
2021/12/13 05:18:43;;;;;;;12.02;1.90;;;-1.40;99.90;;;;;;4954893;29;20058;-79
2021/12/13 05:21:13;;;;;;;1.85;1.75;;;-1.40;99.90;;;;;;4940031;29;20043;-79
2021/12/13 05:24:02;;;;;;;6.90;2.15;;;-1.50;99.90;;;;;;4939644;29;20008;-79
2021/12/13 05:26:36;;;;;;;3.45;2.42;;;-1.50;99.90;;;;;;4957411;29;20067;-79
2021/12/13 05:29:04;;;;;;;3.05;2.00;;;-1.50;99.90;;;;;;4940358;29;20032;-79
2021/12/13 05:31:30;;;;;;;1.67;1.55;;;-1.50;99.90;;;;;;4940404;29;20058;-79
2021/12/13 05:34:06;;;;;;;1.83;1.73;;;-1.60;99.90;;;;;;4956923;28;20047;-79
2021/12/13 05:36:34;;;;;;;2.75;2.53;;;-1.20;99.90;;;;;;4937748;29;20012;-79
2021/12/13 05:39:11;;;;;;;1.85;1.45;;;-1.20;99.90;;;;;;4940189;29;20028;-79
2021/12/13 05:41:40;;;;;;;5.50;2.97;;;-1.30;99.90;;;;;;4957569;29;20031;-79
2021/12/13 05:44:10;;;;;;;2.58;1.80;;;-1.70;99.90;;;;;;4937721;29;20059;-79
2021/12/13 05:46:38;;;;;;;5.43;2.17;;;-1.20;99.90;;;;;;4952940;29;20188;-79
2021/12/13 05:49:08;;;;;;;8.02;2.72;;;-0.90;99.90;;;;;;4938511;28;20024;-79
2021/12/13 05:51:38;;;;;;;4.05;2.00;;;-0.80;99.90;;;;;;4950398;29;20099;-79
2021/12/13 05:54:09;;;;;;;2.70;2.38;;;-1.30;99.90;;;;;;4939466;28;20047;-79
2021/12/13 05:57:01;;;;;;;4.03;1.65;;;-1.50;99.90;;;;;;4956551;29;20023;-80
2021/12/13 05:59:38;;;;;;;2.22;1.73;;;-1.50;99.90;;;;;;4935395;29;20236;-79
2021/12/13 06:02:30;;;;;;;4.18;2.08;;;-1.60;99.90;;;;;;4935495;29;20008;-80
2021/12/13 06:05:16;;;;;;;3.40;1.65;;;-1.60;99.90;;;;;;4934247;29;20059;-80
2021/12/13 06:07:51;;;;;;;5.03;2.45;;;-1.70;99.90;;;;;;4954909;29;20024;-79
2021/12/13 06:10:18;;;;;;;2.33;1.48;;;-1.30;99.90;;;;;;4939323;29;20027;-79
2021/12/13 06:12:51;;;;;;;0.95;0.93;;;-1.50;99.90;;;;;;4938915;29;20054;-80
2021/12/13 06:15:17;;;;;;;5.03;2.53;;;-1.60;99.90;;;;;;4954371;29;20054;-80
2021/12/13 06:18:10;;;;;;;3.63;1.60;;;-1.10;99.90;;;;;;4954682;29;20028;-80
2021/12/13 06:20:47;;;;;;;1.83;1.73;;;-1.30;99.90;;;;;;4928585;29;20074;-80
2021/12/13 06:23:29;;;;;;;3.60;2.22;;;-1.30;99.90;;;;;;4953936;29;20008;-79
2021/12/13 06:26:07;;;;;;;3.60;2.30;;;-1.60;99.90;;;;;;4953659;29;20034;-79
2021/12/13 06:28:40;;;;;;;2.92;1.42;;;-1.80;99.90;;;;;;4934670;29;20036;-80
2021/12/13 06:31:17;;;;;;;2.90;2.13;;;-1.80;99.90;;;;;;4939544;29;20008;-80
2021/12/13 06:33:53;;;;;;;2.97;1.83;;;-1.70;99.90;;;;;;4952037;29;20027;-80
2021/12/13 06:36:33;;;;;;;2.83;2.63;;;-1.50;99.90;;;;;;4951417;29;20572;-81
2021/12/13 06:39:19;;;;;;;2.83;1.95;;;-1.60;99.90;;;;;;4930647;29;20373;-81
2021/12/13 06:41:49;;;;;;;3.28;2.72;;;-1.40;99.90;;;;;;4928534;29;20030;-80
2021/12/13 06:44:25;;;;;;;2.63;2.42;;;-1.50;99.90;;;;;;4941915;29;20036;-81
2021/12/13 06:47:11;;;;;;;13.30;3.75;;;-1.60;99.90;;;;;;4929855;29;20036;-79
2021/12/13 06:50:04;;;;;;;8.20;3.80;;;-1.70;99.90;;;;;;4944580;29;20022;-82
2021/12/13 06:52:36;;;;;;;2.22;2.10;;;-1.60;99.90;;;;;;4930282;29;20071;-80
2021/12/13 06:55:08;;;;;;;4.20;2.08;;;-0.30;99.90;;;;;;4927608;29;20031;-80
2021/12/13 06:57:35;;;;;;;4.10;2.38;;;-1.70;99.90;;;;;;4932793;29;20012;-80
2021/12/13 07:00:07;;;;;;;7.60;3.40;;;-1.10;99.90;;;;;;4936188;29;20016;-80
2021/12/13 07:02:38;;;;;;;3.60;1.75;;;-1.70;99.90;;;;;;4938535;29;20027;-79
2021/12/13 07:05:17;;;;;;;4.78;3.08;;;-1.70;99.90;;;;;;4938511;28;20023;-79
2021/12/13 07:08:09;;;;;;;3.07;2.77;;;-1.80;99.90;;;;;;4938804;29;20024;-80
2021/12/13 07:10:43;;;;;;;3.25;2.65;;;-1.80;99.90;;;;;;4927660;29;20050;-80
2021/12/13 07:13:37;;;;;;;3.28;2.55;;;-1.00;99.90;;;;;;4926963;29;20028;-79
2021/12/13 07:16:03;;;;;;;2.95;1.30;;;-1.90;99.90;;;;;;4946604;29;20026;-80
2021/12/13 07:18:38;;;;;;;2.13;2.03;;;-1.90;99.90;;;;;;4924117;29;20115;-80
2021/12/13 07:21:21;;;;;;;2.75;2.53;;;-1.90;99.90;;;;;;4923473;29;20074;-79
2021/12/13 07:24:08;;;;;;;1.83;1.73;;;-1.90;99.90;;;;;;4927155;29;20052;-80
2021/12/13 07:26:43;;;;;;;6.40;2.97;;;-1.80;99.90;;;;;;4940041;29;20012;-80
2021/12/13 07:29:11;;;;;;;5.40;3.47;;;-1.80;99.90;;;;;;4942599;29;20039;-81
2021/12/13 07:31:39;;;;;;;21.67;3.13;;;-1.70;99.90;;;;;;4935704;29;20039;-79
2021/12/13 07:34:20;;;;;;;2.13;2.03;;;-1.70;99.90;;;;;;4936026;29;20267;-78
2021/12/13 07:36:59;;;;;;;2.55;2.25;;;-1.70;99.90;;;;;;4937424;29;20544;-78
2021/12/13 07:39:28;;;;;;;2.88;1.70;;;-2.00;99.90;;;;;;4922639;29;20027;-78
2021/12/13 07:42:00;;;;;;;2.80;2.53;;;-2.00;99.90;;;;;;4925740;29;20315;-79
2021/12/13 07:44:41;;;;;;;3.08;2.30;;;-2.00;99.90;;;;;;4920579;29;20027;-77
2021/12/13 07:47:21;;;;;;;1.92;1.73;;;-2.00;99.90;;;;;;4922046;29;20032;-78
2021/12/13 07:49:53;;;;;;;2.85;1.65;;;-1.70;99.90;;;;;;4930069;29;20248;-78
2021/12/13 07:52:33;;;;;;;4.40;2.25;;;-1.60;99.90;;;;;;4940423;29;20320;-76
2021/12/13 07:55:14;;;;;;;2.03;1.48;;;-1.50;99.90;;;;;;4925103;29;20047;-77
2021/12/13 07:57:40;;;;;;;2.70;2.55;;;-1.50;99.90;;;;;;4941537;29;20051;-78
2021/12/13 08:00:15;;;;;;;2.83;2.63;;;-1.60;99.90;;;;;;4947183;29;20027;-78
2021/12/13 08:02:53;;;;;;;7.72;3.72;;;-1.70;99.90;;;;;;4934935;29;20028;-77
2021/12/13 08:05:24;;;;;;;7.72;3.55;;;-1.50;99.90;;;;;;4939651;29;20068;-77
2021/12/13 08:07:54;;;;;;;4.65;3.55;;;-1.40;99.90;;;;;;4941333;29;20078;-77
2021/12/13 08:10:24;;;;;;;16.35;3.38;;;-1.30;99.90;;;;;;4940491;29;20055;-76
2021/12/13 08:12:54;;;;;;;4.93;2.60;;;-1.20;99.90;;;;;;4963901;28;20090;-76
2021/12/13 08:15:23;;;;;;;3.65;2.65;;;-1.00;99.90;;;;;;4953831;29;20023;-76
2021/12/13 08:17:58;;;;;;;6.30;3.42;;;-1.00;99.90;;;;;;4956549;29;20103;-76
2021/12/13 08:20:32;;;;;;;6.60;3.03;;;-0.90;99.90;;;;;;4952251;29;20044;-76
2021/12/13 08:22:59;;;;;;;4.80;2.95;;;-0.90;99.90;;;;;;4938622;29;20327;-77
2021/12/13 08:25:34;;;;;;;7.13;1.98;;;-0.80;99.90;;;;;;4939482;29;20117;-77
2021/12/13 08:28:06;;;;;;;2.90;2.65;;;-0.70;99.90;;;;;;4923954;29;20020;-77
2021/12/13 08:30:55;;;;;;;4.60;3.03;;;-0.60;99.90;;;;;;4937794;29;20032;-76
2021/12/13 08:33:45;;;;;;;2.58;1.83;;;-0.60;99.90;;;;;;4936547;29;20056;-76
2021/12/13 08:36:15;;;;;;;9.70;2.63;;;-0.60;99.90;;;;;;4937850;29;20032;-76
2021/12/13 08:38:43;;;;;;;11.13;4.00;;;-0.50;99.90;;;;;;4935842;29;20108;-77
2021/12/13 08:41:15;;;;;;;4.22;2.75;;;-0.40;99.90;;;;;;4920309;29;20418;-76
2021/12/13 08:43:43;;;;;;;4.50;3.00;;;-0.40;99.90;;;;;;4946014;29;20046;-77
2021/12/13 08:46:12;;;;;;;7.97;4.18;;;-0.30;99.90;;;;;;4930250;29;20024;-76
2021/12/13 08:48:50;;;;;;;7.63;3.58;;;-0.20;99.90;;;;;;4943275;29;20043;-77
2021/12/13 08:51:26;;;;;;;6.32;2.92;;;-0.10;99.90;;;;;;4944654;29;20031;-77
2021/12/13 08:54:10;;;;;;;3.95;3.38;;;-0.10;99.90;;;;;;4941309;29;20043;-76
2021/12/13 08:56:44;;;;;;;4.40;3.20;;;0.00;99.90;;;;;;4928770;29;20555;-76
2021/12/13 08:59:23;;;;;;;4.47;3.47;;;0.00;99.90;;;;;;4937218;29;20040;-76
2021/12/13 09:02:11;;;;;;;3.05;2.80;;;0.00;99.90;;;;;;4940869;29;20027;-76
2021/12/13 09:04:41;;;;;;;9.45;5.30;;;0.10;99.90;;;;;;4939667;29;20020;-77
2021/12/13 09:07:13;;;;;;;13.18;4.18;;;0.30;99.90;;;;;;4924623;29;20036;-77
2021/12/13 09:09:44;;;;;;;5.55;3.33;;;0.30;99.90;;;;;;4941035;29;20135;-78
2021/12/13 09:12:11;;;;;;;11.13;3.72;;;0.40;99.90;;;;;;4928670;29;20043;-81
2021/12/13 09:14:44;;;;;;;9.50;4.05;;;0.50;99.90;;;;;;4928746;29;20027;-78
2021/12/13 09:17:21;;;;;;;11.20;4.43;;;0.60;99.90;;;;;;4953447;29;20183;-79
2021/12/13 09:19:57;;;;;;;14.25;6.50;;;0.60;99.90;;;;;;4940200;29;20055;-80
2021/12/13 09:22:33;;;;;;;9.05;5.03;;;0.70;99.90;;;;;;4939183;29;20027;-81
2021/12/13 09:25:12;;;;;;;14.27;4.90;;;0.90;99.90;;;;;;4958029;29;20032;-78
2021/12/13 09:27:49;;;;;;;8.97;5.27;;;1.00;99.90;;;;;;4936288;29;20074;-78
2021/12/13 09:30:33;;;;;;;13.32;5.22;;;1.00;99.90;;;;;;4936241;29;20325;-78
2021/12/13 09:33:07;;;;;;;14.65;4.93;;;1.10;99.90;;;;;;4953079;29;20062;-78
2021/12/13 09:35:38;;;;;;;20.05;5.57;;;1.30;99.90;;;;;;4928275;29;20020;-78
2021/12/13 09:38:28;;;;;;;9.98;6.00;;;1.40;99.90;;;;;;4917142;29;20019;-79
2021/12/13 09:41:19;;;;;;;15.10;6.97;;;1.40;99.90;;;;;;4917246;29;20079;-78
2021/12/13 09:44:05;;;;;;;11.45;4.85;;;1.50;99.90;;;;;;4934138;29;20309;-77
2021/12/13 09:46:48;;;;;;;18.67;7.28;;;1.60;99.90;;;;;;4917275;29;20152;-78
2021/12/13 09:49:34;;;;;;;17.75;5.97;;;1.70;99.90;;;;;;4918072;29;20031;-79
2021/12/13 09:52:35;;;;;;;9.52;5.55;;;1.70;99.90;;;;;;4928537;29;20091;-79
2021/12/13 09:55:10;;;;;;;20.40;7.82;;;1.90;99.90;;;;;;4879529;29;20197;-78
2021/12/13 09:57:57;;;;;;;15.93;7.30;;;2.00;99.90;;;;;;4911900;29;20042;-78
2021/12/13 10:00:26;;;;;;;11.00;8.00;;;2.20;99.90;;;;;;4934500;29;20229;-78
2021/12/13 10:02:56;;;;;;;19.35;8.38;;;2.50;99.90;;;;;;4933889;29;20099;-76
2021/12/13 10:05:30;;;;;;;19.65;10.18;;;2.70;99.90;;;;;;4914314;29;20067;-76
2021/12/13 10:08:01;;;;;;;17.58;7.78;;;2.80;99.90;;;;;;4934145;29;20508;-78
2021/12/13 10:10:46;;;;;;;10.43;5.65;;;2.90;99.90;;;;;;4923705;29;20071;-78
2021/12/13 10:13:24;;;;;;;9.50;6.78;;;3.00;99.90;;;;;;4933945;29;20425;-79
2021/12/13 10:15:58;;;;;;;12.90;6.55;;;3.10;99.90;;;;;;4924348;29;20019;-79
2021/12/13 10:18:28;;;;;;;16.23;6.15;;;3.10;99.90;;;;;;4923204;29;20019;-78
2021/12/13 10:21:07;;;;;;;17.10;7.40;;;3.20;99.90;;;;;;4940620;29;20043;-77
2021/12/13 10:23:38;;;;;;;13.35;5.30;;;3.30;99.90;;;;;;4931427;29;20464;-81
2021/12/13 10:26:09;;;;;;;14.18;7.13;;;3.40;99.90;;;;;;4941679;29;20342;-78
2021/12/13 10:28:41;;;;;;;14.20;6.75;;;3.40;99.90;;;;;;4920435;29;20254;-79
2021/12/13 10:31:17;;;;;;;15.38;6.55;;;3.40;99.90;;;;;;4930117;29;20027;-78
2021/12/13 10:33:44;;;;;;;8.38;6.30;;;3.50;99.90;;;;;;4941570;29;20048;-78
2021/12/13 10:36:10;;;;;;;12.32;6.00;;;3.60;99.90;;;;;;4928433;29;20070;-78
2021/12/13 10:38:44;;;;;;;19.85;6.97;;;3.60;99.90;;;;;;4929514;29;20244;-78
2021/12/13 10:41:17;;;;;;;13.45;7.40;;;3.70;99.90;;;;;;4943963;29;20027;-78
2021/12/13 10:43:50;;;;;;;19.88;10.90;;;3.90;99.90;;;;;;4927347;29;20032;-78
2021/12/13 10:46:29;;;;;;;7.32;4.90;;;3.90;99.90;;;;;;4922885;29;20493;-79
2021/12/13 10:49:03;;;;;;;12.05;7.30;;;3.90;99.90;;;;;;4919725;29;20122;-79
2021/12/13 10:51:36;;;;;;;17.60;7.60;;;4.00;99.90;;;;;;4930844;29;20387;-77
2021/12/13 10:54:11;;;;;;;16.00;6.18;;;4.10;99.90;;;;;;4941172;29;20033;-78
2021/12/13 10:56:49;;;;;;;18.88;7.35;;;4.20;99.90;;;;;;4923026;29;20327;-78
2021/12/13 10:59:21;;;;;;;13.55;6.30;;;4.20;99.90;;;;;;4926581;29;20035;-74
2021/12/13 11:01:52;;;;;;;17.08;7.60;;;4.30;99.90;;;;;;4919608;29;20228;-77
2021/12/13 11:04:25;;;;;;;10.85;5.75;;;4.30;99.90;;;;;;4944973;29;20016;-79
2021/12/13 11:06:51;;;;;;;10.25;5.28;;;4.30;99.90;;;;;;4944617;29;20078;-80
2021/12/13 11:09:23;;;;;;;13.23;7.03;;;4.40;99.90;;;;;;4926461;29;20211;-77
2021/12/13 11:12:07;;;;;;;14.40;6.32;;;4.50;99.90;;;;;;4939885;29;20077;-78
2021/12/13 11:14:38;;;;;;;10.65;7.20;;;4.70;99.90;;;;;;4922389;29;20023;-77
2021/12/13 11:17:07;;;;;;;13.60;7.72;;;4.80;99.90;;;;;;4922761;29;20015;-81
2021/12/13 11:19:37;;;;;;;15.55;7.18;;;4.90;99.90;;;;;;4934484;29;20071;-79
2021/12/13 11:22:08;;;;;;;10.45;5.65;;;5.00;99.90;;;;;;4935779;29;20393;-80
2021/12/13 11:24:36;;;;;;;15.77;6.55;;;5.00;99.90;;;;;;4917075;29;20028;-80
2021/12/13 11:27:08;;;;;;;11.80;5.90;;;5.10;99.90;;;;;;4936114;29;20019;-79
2021/12/13 11:29:35;;;;;;;14.45;6.85;;;5.10;99.90;;;;;;4919115;29;20034;-79
2021/12/13 11:32:28;;;;;;;7.10;5.30;;;5.20;99.90;;;;;;4938709;29;20035;-78
2021/12/13 11:35:04;;;;;;;11.15;6.25;;;5.20;99.90;;;;;;4938839;29;20055;-78
2021/12/13 11:38:06;;;;;;;8.75;5.15;;;5.40;99.90;;;;;;4940698;29;20429;-77
2021/12/13 11:41:27;;;;;;;10.23;5.45;;;5.40;99.90;;;;;;4919000;29;20041;-79
2021/12/13 11:44:35;;;;;;;10.10;6.68;;;3.70;99.90;;;;;;4848517;29;20038;-78
2021/12/13 11:47:38;;;;;;;14.77;6.28;;;5.60;99.90;;;;;;4934835;29;20024;-78
2021/12/13 11:50:28;;;;;;;15.68;6.63;;;5.60;99.90;;;;;;4935594;29;20020;-78
2021/12/13 11:53:24;;;;;;;9.00;5.75;;;5.70;99.90;;;;;;4934511;29;20039;-79
2021/12/13 11:55:59;;;;;;;14.40;5.20;;;5.70;99.90;;;;;;4931256;29;20019;-79
2021/12/13 11:59:11;;;;;;;15.07;5.93;;;5.80;99.90;;;;;;4918626;29;20425;-78
2021/12/13 12:02:00;;;;;;;10.90;5.35;;;5.80;99.90;;;;;;4907855;29;20032;-79
2021/12/13 12:05:05;;;;;;;7.85;4.28;;;5.80;99.90;;;;;;4915705;29;20377;-78
2021/12/13 12:08:09;;;;;;;9.95;6.78;;;5.90;99.90;;;;;;4919085;29;20473;-80
2021/12/13 12:10:53;;;;;;;14.98;6.00;;;6.20;99.90;;;;;;4938347;29;20043;-79
2021/12/13 12:13:40;;;;;;;11.80;4.55;;;6.20;99.90;;;;;;4940016;29;20047;-78
2021/12/13 12:16:08;;;;;;;12.48;7.07;;;6.30;99.90;;;;;;4925265;29;20025;-79
2021/12/13 12:18:37;;;;;;;14.13;5.97;;;6.30;99.90;;;;;;4921993;29;20039;-78
2021/12/13 12:21:31;;;;;;;18.00;5.63;;;6.30;99.90;;;;;;4917994;29;20365;-78
2021/12/13 12:24:01;;;;;;;6.80;5.18;;;6.30;99.90;;;;;;4919539;29;20123;-80
2021/12/13 12:26:28;;;;;;;9.00;4.38;;;6.40;99.90;;;;;;4918624;29;20488;-81
2021/12/13 12:28:58;;;;;;;16.10;5.72;;;6.50;99.90;;;;;;4941575;29;20102;-78
2021/12/13 12:31:34;;;;;;;20.65;8.40;;;6.60;99.90;;;;;;4918111;29;20032;-78
2021/12/13 12:34:01;;;;;;;7.75;4.85;;;6.60;99.90;;;;;;4918650;29;21096;-78
2021/12/13 12:36:39;;;;;;;23.38;6.30;;;6.60;99.90;;;;;;4931809;29;20026;-78
2021/12/13 12:39:05;;;;;;;11.63;5.90;;;6.70;99.90;;;;;;4921065;29;20350;-78
2021/12/13 12:42:12;;;;;;;5.80;4.07;;;6.80;99.90;;;;;;4918110;29;20020;-78
2021/12/13 12:44:55;;;;;;;8.07;4.65;;;6.80;99.90;;;;;;4878790;29;20032;-77
2021/12/13 12:47:58;;;;;;;13.20;6.05;;;7.00;99.90;;;;;;4897829;29;20067;-78
2021/12/13 12:50:42;;;;;;;9.13;4.13;;;7.00;99.90;;;;;;4915505;29;20020;-78
2021/12/13 12:53:31;;;;;;;9.27;4.82;;;6.90;99.90;;;;;;4903660;29;20063;-80
2021/12/13 12:56:19;;;;;;;6.05;3.28;;;7.00;99.90;;;;;;4908107;29;20022;-82
2021/12/13 12:59:00;;;;;;;8.30;4.78;;;7.00;99.90;;;;;;4922502;29;20036;-82
2021/12/13 13:01:36;;;;;;;7.30;4.25;;;7.20;99.90;;;;;;4947476;29;20031;-82
2021/12/13 13:04:22;;;;;;;5.53;4.03;;;7.20;99.90;;;;;;4926909;29;20024;-79
2021/12/13 13:07:13;;;;;;;5.40;3.08;;;7.30;99.90;;;;;;4938876;29;20096;-82
2021/12/13 13:09:55;;;;;;;8.40;3.65;;;7.80;99.90;;;;;;4944089;29;20082;-83
2021/12/13 13:12:35;;;;;;;4.50;2.03;;;8.80;99.90;;;;;;4922041;29;20087;-81
2021/12/13 13:15:04;;;;;;;;;;;9.50;99.90;;;;;;4942595;29;20055;-80
2021/12/13 13:17:33;;;;;;;3.85;3.15;;;9.90;99.90;;;;;;4924650;29;19918;-79
2021/12/13 13:20:12;;;;;;;3.83;2.80;;;10.20;99.90;;;;;;4940891;29;20075;-79
2021/12/13 13:22:41;;;;;;;6.53;3.33;;;10.30;99.90;;;;;;4925847;29;20035;-82
2021/12/13 13:25:21;;;;;;;7.27;3.20;;;11.10;99.90;;;;;;4929469;29;20023;-83
2021/12/13 13:27:47;;;;;;;8.82;3.42;;;12.30;99.90;;;;;;4943801;29;21081;-80
2021/12/13 13:30:27;;;;;;;7.82;3.60;;;13.00;97.10;;;;;;4918706;29;20023;-80
2021/12/13 13:32:59;;;;;;;13.02;4.95;;;12.60;95.90;;;;;;4923694;29;20074;-83
2021/12/13 13:35:27;;;;;;;2.53;2.08;;;12.20;96.60;;;;;;4893775;29;20028;-84
2021/12/13 13:37:53;;;;;;;4.50;1.95;;;9.60;96.40;;;;;;4897428;28;20012;-81
2021/12/13 13:40:23;;;;;;;4.85;2.15;;;12.00;97.10;;;;;;4917215;29;20067;-80